Nearby METAR Reports

 

KSJC - San Jose, California, USA
Distance from station: NE 9mi, 14km
Updated: Tue, 22-Jun-2021 11:53am CDT
Few Clouds
Few Clouds
 Wind from WSW
Wind: WSW 5 mph , 7 km/h
Temperature: 70°F , 21°C
Dew Point: 54°F , 12°C
Humidity: 57%
Barometer: 29.90 inHg , 1012.5 hPa
Clouds: Few Clouds
Visibility: 10 miles , 16 km
Cloud details: Few Clouds 1600 ft
Few Clouds 2900 ft
2021/06/22 16:53 KSJC 221653Z 24004KT 10SM FEW016 FEW029 21/12 A2990 RMK AO2 SLP126 T02060117
KNUQ - Moffett Nas/Mtn, California, USA
Distance from station: N 9mi, 14km
Updated: Tue, 22-Jun-2021 12:35pm CDT
Mostly cloudy
Mostly cloudy
 Wind from S
Wind: S 8 mph , 13 km/h
Temperature: 70°F , 21°C
Dew Point: 54°F , 12°C
Humidity: 57%
Barometer: 29.91 inHg , 1012.9 hPa
Clouds: Mostly cloudy
Visibility: 10 miles , 16 km
Cloud details: Mostly cloudy 3200 ft
2021/06/22 17:35 KNUQ 221735Z AUTO 17007KT 140V200 10SM BKN032 21/12 A2991 RMK AO2
 
KPAO - Palo Alto, California, USA
Distance from station: NNW 14mi, 23km
Updated: Tue, 22-Jun-2021 12:47pm CDT
Partly cloudy
Partly cloudy
 Wind from N
Wind: N 8 mph , 13 km/h
Temperature: 68°F , 20°C
Dew Point: 55°F , 13°C
Humidity: 64%
Barometer: 29.91 inHg , 1012.9 hPa
Clouds: Partly cloudy
Visibility: 10 miles , 16 km
Cloud details: Partly cloudy 3000 ft
2021/06/22 17:47 KPAO 221747Z 36007KT 10SM SCT030 20/13 A2991
KRHV - San Jose/Reid, California, USA
Distance from station: ENE 12mi, 19km
Updated: Tue, 22-Jun-2021 11:47am CDT
Partly cloudy
Partly cloudy
 Wind from S
Wind: S 10 mph , 17 km/h
Temperature: 72°F , 22°C
Dew Point: 54°F , 12°C
Humidity: 53%
Barometer: 29.91 inHg , 1012.9 hPa
Clouds: Partly cloudy
Visibility: 10 miles , 16 km
Cloud details: Partly cloudy 2500 ft
2021/06/22 16:47 KRHV 221647Z 18009KT 10SM SCT025 22/12 A2991
 
KOAK - Oakland, California, USA
Distance from station: NNW 31mi, 50km
Updated: Tue, 22-Jun-2021 11:53am CDT
Mostly cloudy
Mostly cloudy
 Wind from SSW
Wind: SSW 7 mph , 11 km/h
Temperature: 66°F , 19°C
Dew Point: 55°F , 13°C
Humidity: 68%
Barometer: 29.92 inHg , 1013.2 hPa
Clouds: Mostly cloudy
Visibility: 10 miles , 16 km
Cloud details: Few Clouds 2200 ft
Partly cloudy 2400 ft
Mostly cloudy 3000 ft
2021/06/22 16:53 KOAK 221653Z 20006KT 10SM FEW022 SCT024 BKN030 19/13 A2992 RMK AO2 SLP131 T01940133
KSQL - San Carlos Airpo, California, USA
Distance from station: NW 21mi, 34km
Updated: Tue, 22-Jun-2021 11:47am CDT
Mostly cloudy
Mostly cloudy
 Wind from S
Wind: S 10 mph , 17 km/h
Temperature: 68°F , 20°C
Dew Point: 54°F , 12°C
Humidity: 60%
Barometer: 29.92 inHg , 1013.2 hPa
Clouds: Mostly cloudy
Visibility: 10 miles , 16 km
Cloud details: Few Clouds 1000 ft
Mostly cloudy 2600 ft
2021/06/22 16:47 KSQL 221647Z 19009KT 10SM FEW010 BKN026 20/12 A2992
 
KSFO - San Francisco, California, USA
Distance from station: NW 30mi, 49km
Updated: Tue, 22-Jun-2021 11:56am CDT
Overcast
Overcast
 Wind from S
Wind: S 16 mph , 26 km/h, Gust: 23 mph , 37 km/h
Temperature: 70°F , 21°C
Dew Point: 54°F , 12°C
Humidity: 57%
Barometer: 29.91 inHg , 1012.9 hPa
Clouds: Overcast
Visibility: 10 miles , 16 km
Cloud details: Few Clouds 900 ft
Overcast 2900 ft
2021/06/22 16:56 KSFO 221656Z 19014G20KT 10SM FEW009 OVC029 21/12 A2991 RMK AO2 SLP129 T02110122
KE16 - San Martin, California, USA
Distance from station: ESE 27mi, 43km
Updated: Tue, 22-Jun-2021 12:35pm CDT
Few Clouds
Few Clouds
 Wind from S
Wind: S 9 mph , 15 km/h
Temperature: 68°F , 20°C
Dew Point: 54°F , 12°C
Humidity: 60%
Barometer: 29.93 inHg , 1013.5 hPa
Clouds: Few Clouds
Visibility: 10 miles , 16 km
Cloud details: Few Clouds 2700 ft
2021/06/22 17:35 KE16 221735Z AUTO 18008KT 10SM FEW027 20/12 A2993 RMK AO2 PWINO PNO
 
KWVI - Watsonville, California, USA
Distance from station: SSE 27mi, 44km
Updated: Tue, 22-Jun-2021 12:45pm CDT
Partly cloudy
Partly cloudy
 Wind from W
Wind: W 12 mph , 19 km/h
Temperature: 72°F , 22°C
Dew Point: 55°F , 13°C
Humidity: 57%
Barometer: 29.93 inHg , 1013.5 hPa
Clouds: Partly cloudy
Visibility: 10 miles , 16 km
Cloud details: Partly cloudy 2500 ft
2021/06/22 17:45 KWVI 221745Z AUTO 28010KT 10SM SCT025 22/13 A2993 RMK AO2 T02170128
KHAF - Half Moon Bay, California, USA
Distance from station: WNW 31mi, 50km
Updated: Tue, 22-Jun-2021 12:35pm CDT
Overcast
Overcast
 Wind from S
Wind: S 15 mph , 24 km/h, Gust: 22 mph , 35 km/h
Temperature: 59°F , 15°C
Dew Point: 57°F , 14°C
Humidity: 94%
Barometer: 29.94 inHg , 1013.9 hPa
Clouds: Overcast
Visibility: 9 miles , 14 km
Cloud details: Partly cloudy 2100 ft
Overcast 3000 ft
2021/06/22 17:35 KHAF 221735Z AUTO 19013G19KT 9SM SCT021 OVC030 15/14 A2994 RMK AO2
 
KHWD - Hayward, California, USA
Distance from station: N 28mi, 44km
Updated: Tue, 22-Jun-2021 11:54am CDT
Few Clouds
Few Clouds
 Wind from WSW
Wind: WSW 6 mph , 9 km/h
Temperature: 68°F , 20°C
Dew Point: 55°F , 13°C
Humidity: 64%
Barometer: 29.91 inHg , 1012.9 hPa
Clouds: Few Clouds
Visibility: 10 miles , 16 km
Cloud details: Few Clouds 2800 ft
2021/06/22 16:54 KHWD 221654Z 24005KT 10SM FEW028 20/13 A2991 RMK AO2 SLP137 T02000128
KLVK - Livermore, California, USA
Distance from station: NNE 31mi, 51km
Updated: Tue, 22-Jun-2021 11:53am CDT
Clear
Clear
 Wind from WSW
Wind: WSW 5 mph , 7 km/h
Temperature: 70°F , 21°C
Dew Point: 52°F , 11°C
Humidity: 53%
Barometer: 29.90 inHg , 1012.5 hPa
Clouds: Clear
Visibility: 10 miles , 16 km
2021/06/22 16:53 KLVK 221653Z 25004KT 10SM CLR 21/11 A2990 RMK AO2 SLP121 T02060106